Pagrindinis puslapis
METAR-TAF:

METAR-TAF

Oro uostai :

Maputu, Mozambikas

platuma: 25-55S, ilguma: 032-34E, Aukštis: 39 m

Dabartinis oras

Ataskaita buvo paskelbta 47 minutes, ne 21:00 UTC
Vėjas 8 kt iš Pietų
Temperatūra 22°C
Drėgmė 83%
Slėgis 1022 hPa
Matomumas 10 km arba daugiau
Išsisklaidę debesys ne aukštis 2000 ft

METAR: FQMA 182100Z 17008KT 9999 SCT020 22/19 Q1022 NOSIG

Laikas: 23:47 (21:47 UTC)

Prognozė

Ataskaita buvo paskelbta 5 valandos ir 47 minutes, ne 16:00 UTC
Prognozė galioja nuo 18 metu 18 UTC su 19 metu 24 UTC
Vėjas 12 kt iš Rytų
Matomumas 10 km arba daugiau
Mažai debesys ne aukštis 2000 ft
Tapsmas
nuo 19 metu 02 UTC su 19 metu 04 UTC
Vėjas 10 kt iš Pietvakarių
Tapsmas
nuo 19 metu 12 UTC su 19 metu 14 UTC
Vėjas 12 kt iš Rytų/Pietryčių

TAF: FQMA 181600Z 1818/1924 10012KT 9999 FEW020 TX34/1913Z TN19/1903Z BECMG 1902/1904 22010KT BECMG 1912/1914 12012KT

Orai ataskaitas ir orų prognozės (METAR, TAF).

turimą stotys yra geltonos ir raudonos taškus žemėlapyje.

Perkelti pele per norėdami pamatyti stoties vardą.

Tada spustelėkite, norėdami matyti oro stebėjimo ir prognozės.

Norėdami pakeisti žemėlapį: spustelėkite ant žalios mygtukų su juodo kryžiaus žemyn,; žalią mygtuką su brūkšneliu, jei norite nutolinti; arba žalių rodyklių gretimoms žemėlapius.


METAR-TAF: